createdAt,value
2019-03-04T00:00:57.370Z,0.00
2019-03-04T00:01:57.381Z,0.00
2019-03-04T00:02:57.357Z,0.00
2019-03-04T00:03:57.334Z,0.00
2019-03-04T00:04:57.329Z,0.00
2019-03-04T00:05:57.316Z,0.00
2019-03-04T00:06:57.331Z,0.00
2019-03-04T00:07:57.291Z,0.00
2019-03-04T00:08:57.288Z,0.00
2019-03-04T00:09:57.264Z,0.00
2019-03-04T00:10:57.268Z,0.00
2019-03-04T00:11:57.271Z,0.00
2019-03-04T00:12:57.247Z,0.00
2019-03-04T00:13:57.238Z,0.00
2019-03-04T00:14:57.216Z,0.00
2019-03-04T00:15:57.210Z,0.00
2019-03-04T00:16:57.216Z,0.00
2019-03-04T00:17:57.191Z,0.00
2019-03-04T00:18:57.175Z,0.00
2019-03-04T00:19:57.168Z,0.00
2019-03-04T00:20:57.146Z,0.00
2019-03-04T00:21:57.153Z,0.00
2019-03-04T00:22:57.150Z,0.00
2019-03-04T00:23:57.147Z,0.00
2019-03-04T00:24:57.111Z,0.00
2019-03-04T00:25:57.108Z,0.00
2019-03-04T00:26:57.083Z,0.00
2019-03-04T00:27:57.093Z,0.00
2019-03-04T00:28:57.058Z,0.00
2019-03-04T00:29:57.050Z,0.00
2019-03-04T00:30:57.045Z,0.00
2019-03-04T00:31:57.033Z,0.00
2019-03-04T00:32:57.024Z,0.00
2019-03-04T00:33:57.009Z,0.00
2019-03-04T00:34:57.002Z,0.00
2019-03-04T00:35:56.986Z,0.00
2019-03-04T00:36:56.969Z,0.00
2019-03-04T00:37:57.009Z,0.00
2019-03-04T00:38:56.945Z,0.00
2019-03-04T00:39:56.955Z,0.00
2019-03-04T00:40:56.936Z,0.00
2019-03-04T00:41:56.920Z,0.00
2019-03-04T00:42:56.912Z,0.00
2019-03-04T00:43:56.914Z,0.00
2019-03-04T00:44:56.885Z,0.00
2019-03-04T00:45:57.826Z,0.00
2019-03-04T00:46:56.865Z,0.00
2019-03-04T00:47:56.843Z,0.00
2019-03-04T00:48:56.847Z,0.00
2019-03-04T00:49:57.117Z,0.00
2019-03-04T00:50:56.823Z,0.00
2019-03-04T00:51:56.821Z,0.00
2019-03-04T00:52:56.793Z,0.00
2019-03-04T00:53:56.805Z,0.00
2019-03-04T00:54:56.803Z,0.00
2019-03-04T00:55:56.758Z,0.00
2019-03-04T00:56:56.763Z,0.00
2019-03-04T00:57:56.733Z,0.00
2019-03-04T00:58:56.774Z,0.00
2019-03-04T00:59:56.713Z,0.00
2019-03-04T01:00:56.703Z,0.00
2019-03-04T01:01:56.692Z,0.00
2019-03-04T01:02:56.694Z,0.00
2019-03-04T01:03:56.707Z,0.00
2019-03-04T01:04:56.669Z,0.00
2019-03-04T01:05:56.655Z,0.00
2019-03-04T01:06:56.653Z,0.00
2019-03-04T01:07:56.628Z,0.00
2019-03-04T01:08:56.634Z,0.00
2019-03-04T01:09:56.641Z,0.00
2019-03-04T01:10:56.602Z,0.00
2019-03-04T01:11:56.584Z,0.00
2019-03-04T01:12:56.590Z,0.00
2019-03-04T01:13:56.567Z,0.00
2019-03-04T01:14:56.573Z,0.00
2019-03-04T01:15:56.532Z,0.00
2019-03-04T01:16:56.541Z,0.00
2019-03-04T01:17:56.547Z,0.00
2019-03-04T01:18:56.516Z,0.00
2019-03-04T01:19:56.530Z,0.00
2019-03-04T01:20:56.476Z,0.00
2019-03-04T01:21:56.489Z,0.00
2019-03-04T01:22:56.455Z,0.00
2019-03-04T01:23:56.468Z,0.00
2019-03-04T01:24:56.447Z,0.00
2019-03-04T01:25:56.455Z,0.00
2019-03-04T01:26:56.420Z,0.00
2019-03-04T01:27:56.432Z,0.00
2019-03-04T01:28:56.397Z,0.00
2019-03-04T01:29:56.387Z,0.00
2019-03-04T01:30:56.402Z,0.00
2019-03-04T01:31:56.368Z,0.00
2019-03-04T01:32:56.362Z,0.00
2019-03-04T01:33:56.343Z,0.00
2019-03-04T01:34:56.332Z,0.00
2019-03-04T01:35:56.346Z,0.00
2019-03-04T01:36:56.308Z,0.00
2019-03-04T01:37:56.308Z,0.00
2019-03-04T01:38:56.329Z,0.00
2019-03-04T01:39:56.266Z,0.00
2019-03-04T01:40:56.304Z,0.00
2019-03-04T01:41:56.250Z,0.00
2019-03-04T01:42:56.239Z,0.00
2019-03-04T01:43:56.235Z,0.00
2019-03-04T01:44:56.215Z,0.00
2019-03-04T01:45:56.219Z,0.00
2019-03-04T01:46:56.215Z,0.00
2019-03-04T01:47:56.185Z,0.00
2019-03-04T01:48:56.174Z,0.00
2019-03-04T01:49:56.168Z,0.00
2019-03-04T01:50:56.181Z,0.00
2019-03-04T01:51:56.142Z,0.00
2019-03-04T01:52:56.135Z,0.00
2019-03-04T01:53:56.113Z,0.00
2019-03-04T01:54:56.113Z,0.00
2019-03-04T01:55:56.123Z,0.00
2019-03-04T01:56:56.124Z,0.00
2019-03-04T01:57:56.083Z,0.00
2019-03-04T01:58:56.094Z,0.00
2019-03-04T01:59:56.085Z,0.00
2019-03-04T02:00:56.094Z,0.00
2019-03-04T02:01:56.037Z,0.00
2019-03-04T02:02:56.069Z,0.00
2019-03-04T02:03:56.131Z,0.00
2019-03-04T02:04:56.053Z,0.00
2019-03-04T02:05:56.012Z,0.00
2019-03-04T02:06:56.037Z,0.00
2019-03-04T02:07:56.031Z,0.00
2019-03-04T02:08:55.950Z,0.00
2019-03-04T02:09:55.959Z,0.00
2019-03-04T02:10:55.934Z,0.00
2019-03-04T02:11:56.010Z,0.00
2019-03-04T02:12:55.933Z,0.00
2019-03-04T02:13:55.899Z,0.00
2019-03-04T02:14:55.887Z,0.00
2019-03-04T02:15:55.877Z,0.00
2019-03-04T02:16:55.906Z,0.00
2019-03-04T02:17:55.859Z,0.00
2019-03-04T02:18:55.836Z,0.00
2019-03-04T02:19:55.845Z,0.00
2019-03-04T02:20:55.821Z,0.00
2019-03-04T02:21:55.822Z,0.00
2019-03-04T02:22:55.806Z,0.00
2019-03-04T02:23:55.777Z,0.00
2019-03-04T02:24:55.787Z,0.00
2019-03-04T02:25:55.767Z,0.00
2019-03-04T02:26:55.769Z,0.00
2019-03-04T02:27:55.768Z,0.00
2019-03-04T02:28:55.749Z,0.00
2019-03-04T02:29:55.738Z,0.00
2019-03-04T02:30:55.709Z,0.00
2019-03-04T02:31:55.705Z,0.00
2019-03-04T02:32:55.708Z,0.00
2019-03-04T02:33:55.699Z,0.00
2019-03-04T02:34:55.660Z,0.00
2019-03-04T02:35:55.649Z,0.00
2019-03-04T02:36:55.648Z,0.00
2019-03-04T02:37:55.652Z,0.00
2019-03-04T02:38:55.625Z,0.00
2019-03-04T02:39:55.603Z,0.00
2019-03-04T02:40:55.614Z,0.00
2019-03-04T02:41:55.581Z,0.00
2019-03-04T02:42:55.583Z,0.00
2019-03-04T02:43:55.589Z,0.00
2019-03-04T02:44:55.566Z,0.00
2019-03-04T02:45:55.548Z,0.00
2019-03-04T02:46:55.529Z,0.00
2019-03-04T02:47:55.551Z,0.00
2019-03-04T02:48:55.508Z,0.00
2019-03-04T02:49:55.498Z,0.00
2019-03-04T02:50:55.490Z,0.00
2019-03-04T02:51:55.476Z,0.00
2019-03-04T02:52:55.456Z,0.00
2019-03-04T02:53:55.465Z,0.00
2019-03-04T02:54:55.451Z,0.00
2019-03-04T02:55:55.443Z,0.00
2019-03-04T02:56:55.420Z,0.00
2019-03-04T02:57:55.410Z,0.00
2019-03-04T02:58:55.416Z,0.00
2019-03-04T02:59:55.396Z,0.00
2019-03-04T03:00:55.374Z,0.00
2019-03-04T03:01:55.374Z,0.00
2019-03-04T03:02:55.359Z,0.00
2019-03-04T03:03:55.392Z,0.00
2019-03-04T03:04:55.339Z,0.00
2019-03-04T03:05:55.335Z,0.00
2019-03-04T03:06:55.321Z,0.00
2019-03-04T03:07:55.309Z,0.00
2019-03-04T03:08:55.314Z,0.00
2019-03-04T03:09:55.281Z,0.00
2019-03-04T03:10:55.270Z,0.00
2019-03-04T03:11:55.254Z,0.00
2019-03-04T03:12:55.261Z,0.00
2019-03-04T03:13:55.251Z,0.00
2019-03-04T03:14:55.248Z,0.00
2019-03-04T03:15:55.223Z,0.00
2019-03-04T03:16:55.202Z,0.00
2019-03-04T03:17:55.194Z,0.00
2019-03-04T03:18:55.192Z,0.00
2019-03-04T03:19:55.180Z,0.00
2019-03-04T03:20:55.172Z,0.00
2019-03-04T03:21:55.151Z,0.00
2019-03-04T03:22:55.188Z,0.00
2019-03-04T03:23:55.123Z,0.00
2019-03-04T03:24:55.123Z,0.00
2019-03-04T03:25:55.100Z,0.00
2019-03-04T03:26:55.090Z,0.00
2019-03-04T03:27:55.077Z,0.00
2019-03-04T03:28:55.062Z,0.00
2019-03-04T03:29:55.070Z,0.00
2019-03-04T03:30:55.045Z,0.00
2019-03-04T03:31:55.028Z,0.00
2019-03-04T03:32:55.031Z,0.00
2019-03-04T03:33:55.029Z,0.00
2019-03-04T03:34:54.999Z,0.00
2019-03-04T03:35:55.007Z,0.00
2019-03-04T03:36:54.976Z,0.00
2019-03-04T03:37:54.975Z,0.00
2019-03-04T03:38:54.959Z,0.00
2019-03-04T03:39:54.956Z,0.00
2019-03-04T03:40:54.941Z,0.00
2019-03-04T03:41:54.927Z,0.00
2019-03-04T03:42:54.913Z,0.00
2019-03-04T03:43:54.900Z,0.00
2019-03-04T03:44:54.886Z,0.00
2019-03-04T03:45:54.907Z,0.00
2019-03-04T03:46:54.878Z,0.00
2019-03-04T03:47:54.854Z,0.00
2019-03-04T03:48:54.852Z,0.00
2019-03-04T03:49:54.825Z,0.00
2019-03-04T03:50:54.836Z,0.00
2019-03-04T03:51:54.810Z,0.00
2019-03-04T03:52:54.799Z,0.00
2019-03-04T03:53:54.793Z,0.00
2019-03-04T03:54:54.772Z,0.00
2019-03-04T03:55:54.777Z,0.00
2019-03-04T03:56:54.750Z,0.00
2019-03-04T03:57:54.749Z,0.00
2019-03-04T03:58:54.751Z,0.00
2019-03-04T03:59:54.765Z,0.00
2019-03-04T04:00:54.738Z,0.00
2019-03-04T04:01:54.708Z,0.00
2019-03-04T04:02:54.679Z,0.00
2019-03-04T04:03:54.689Z,0.00
2019-03-04T04:04:54.670Z,0.00
2019-03-04T04:05:54.672Z,0.00
2019-03-04T04:06:54.691Z,0.00
2019-03-04T04:07:54.673Z,0.00
2019-03-04T04:08:54.633Z,0.00
2019-03-04T04:09:54.608Z,0.00
2019-03-04T04:10:54.608Z,0.00
2019-03-04T04:11:54.642Z,0.00
2019-03-04T04:12:54.575Z,0.00
2019-03-04T04:13:54.557Z,0.00
2019-03-04T04:14:54.556Z,0.00
2019-03-04T04:15:54.552Z,0.00
2019-03-04T04:16:54.551Z,0.00
2019-03-04T04:17:54.517Z,0.00
2019-03-04T04:18:54.531Z,0.00
2019-03-04T04:19:54.497Z,0.00
2019-03-04T04:20:54.492Z,0.00
2019-03-04T04:21:54.506Z,0.00
2019-03-04T04:22:54.478Z,0.00
2019-03-04T04:23:54.462Z,0.00
2019-03-04T04:24:54.442Z,0.00
2019-03-04T04:25:54.447Z,0.00
2019-03-04T04:26:54.430Z,0.00
2019-03-04T04:27:54.434Z,0.00
2019-03-04T04:28:55.392Z,0.00
2019-03-04T04:29:54.388Z,0.00
2019-03-04T04:30:54.395Z,0.00
2019-03-04T04:31:54.366Z,0.00
2019-03-04T04:32:54.378Z,0.00
2019-03-04T04:33:54.353Z,0.00
2019-03-04T04:34:54.353Z,0.00
2019-03-04T04:35:54.340Z,0.00
2019-03-04T04:36:54.318Z,0.00
2019-03-04T04:37:54.340Z,0.00
2019-03-04T04:38:54.284Z,0.00
2019-03-04T04:39:54.283Z,0.00
2019-03-04T04:40:54.280Z,0.00
2019-03-04T04:41:54.267Z,0.00
2019-03-04T04:42:54.268Z,0.00
2019-03-04T04:43:54.233Z,0.00
2019-03-04T04:44:54.237Z,0.00
2019-03-04T04:45:54.209Z,0.00
2019-03-04T04:46:54.204Z,0.00
2019-03-04T04:47:54.203Z,0.00
2019-03-04T04:48:54.170Z,0.00
2019-03-04T04:49:54.164Z,0.00
2019-03-04T04:50:54.154Z,0.00
2019-03-04T04:51:54.145Z,0.00
2019-03-04T04:52:54.158Z,0.00
2019-03-04T04:53:54.119Z,0.00
2019-03-04T04:54:54.116Z,0.00
2019-03-04T04:55:54.103Z,0.00
2019-03-04T04:56:54.078Z,0.00
2019-03-04T04:57:54.075Z,0.00
2019-03-04T04:58:54.111Z,0.00
2019-03-04T04:59:54.057Z,0.00
2019-03-04T05:00:54.037Z,0.00
2019-03-04T05:01:54.039Z,0.00
2019-03-04T05:02:54.015Z,0.00
2019-03-04T05:03:54.030Z,0.00
2019-03-04T05:04:54.000Z,0.00
2019-03-04T05:05:54.003Z,0.00
2019-03-04T05:06:53.969Z,0.00
2019-03-04T05:07:53.955Z,0.00
2019-03-04T05:08:53.979Z,0.00
2019-03-04T05:09:53.947Z,0.00
2019-03-04T05:10:53.953Z,0.00
2019-03-04T05:11:53.929Z,0.00
2019-03-04T05:12:53.907Z,0.00
2019-03-04T05:13:53.887Z,0.00
2019-03-04T05:14:53.904Z,0.00
2019-03-04T05:15:53.882Z,0.00
2019-03-04T05:16:53.866Z,0.00
2019-03-04T05:17:53.842Z,0.00
2019-03-04T05:18:53.839Z,0.00
2019-03-04T05:19:53.855Z,0.00
2019-03-04T05:20:53.836Z,0.00
2019-03-04T05:21:53.810Z,0.00
2019-03-04T05:22:53.810Z,0.00
2019-03-04T05:23:53.784Z,0.00
2019-03-04T05:24:53.787Z,0.00
2019-03-04T05:25:53.765Z,0.00
2019-03-04T05:26:53.754Z,0.00
2019-03-04T05:27:53.755Z,0.00
2019-03-04T05:28:53.728Z,0.00
2019-03-04T05:29:53.728Z,0.00
2019-03-04T05:30:53.710Z,0.00
2019-03-04T05:31:53.702Z,4.00
2019-03-04T05:32:53.699Z,4.00
2019-03-04T05:33:53.675Z,0.00
2019-03-04T05:34:53.708Z,0.00
2019-03-04T05:35:53.652Z,4.00
2019-03-04T05:36:53.662Z,4.00
2019-03-04T05:37:53.633Z,4.00
2019-03-04T05:38:53.633Z,4.00
2019-03-04T05:39:53.609Z,8.00
2019-03-04T05:40:53.679Z,8.00
2019-03-04T05:41:53.583Z,8.00
2019-03-04T05:42:53.610Z,4.00
2019-03-04T05:43:53.570Z,4.00
2019-03-04T05:44:53.564Z,8.00
2019-03-04T05:45:53.556Z,8.00
2019-03-04T05:46:53.540Z,8.00
2019-03-04T05:47:53.523Z,8.00
2019-03-04T05:48:53.516Z,8.00
2019-03-04T05:49:53.512Z,8.00
2019-03-04T05:50:53.528Z,12.00
2019-03-04T05:51:53.496Z,8.00
2019-03-04T05:52:53.464Z,8.00
2019-03-04T05:53:53.454Z,8.00
2019-03-04T05:54:53.443Z,12.00
2019-03-04T05:55:53.430Z,8.00
2019-03-04T05:56:53.506Z,8.00
2019-03-04T05:57:53.401Z,8.00
2019-03-04T05:58:53.403Z,8.00
2019-03-04T05:59:53.397Z,8.00
2019-03-04T06:00:53.415Z,8.00
2019-03-04T06:01:53.390Z,12.00
2019-03-04T06:02:53.353Z,8.00
2019-03-04T06:03:53.881Z,12.00
2019-03-04T06:04:53.344Z,12.00
2019-03-04T06:05:53.327Z,12.00
2019-03-04T06:06:53.349Z,20.00
2019-03-04T06:07:53.374Z,20.00
2019-03-04T06:08:53.308Z,24.00
2019-03-04T06:09:53.283Z,24.00
2019-03-04T06:10:53.269Z,24.00
2019-03-04T06:11:53.259Z,24.00
2019-03-04T06:12:53.255Z,24.00
2019-03-04T06:13:53.239Z,24.00
2019-03-04T06:14:53.279Z,32.00
2019-03-04T06:15:53.209Z,32.00
2019-03-04T06:16:53.220Z,36.00
2019-03-04T06:17:53.193Z,36.00
2019-03-04T06:18:53.177Z,44.00
2019-03-04T06:19:53.177Z,48.00
2019-03-04T06:20:53.158Z,64.00
2019-03-04T06:21:53.166Z,80.00
2019-03-04T06:22:53.139Z,108.00
2019-03-04T06:23:53.132Z,144.00
2019-03-04T06:24:53.119Z,172.00
2019-03-04T06:25:53.103Z,208.00
2019-03-04T06:26:53.100Z,228.00
2019-03-04T06:27:53.145Z,220.00
2019-03-04T06:28:53.069Z,192.00
2019-03-04T06:29:53.047Z,160.00
2019-03-04T06:30:53.065Z,128.00
2019-03-04T06:31:53.070Z,112.00
2019-03-04T06:32:53.027Z,96.00
2019-03-04T06:33:53.003Z,96.00
2019-03-04T06:34:53.021Z,100.00
2019-03-04T06:35:52.992Z,112.00
2019-03-04T06:36:53.158Z,128.00
2019-03-04T06:37:52.995Z,140.00
2019-03-04T06:38:52.954Z,160.00
2019-03-04T06:39:52.950Z,176.00
2019-03-04T06:40:52.950Z,196.00
2019-03-04T06:41:52.923Z,212.00
2019-03-04T06:42:52.944Z,212.00
2019-03-04T06:43:52.907Z,216.00
2019-03-04T06:44:52.895Z,212.00
2019-03-04T06:45:52.874Z,216.00
2019-03-04T06:46:52.885Z,232.00
2019-03-04T06:47:52.889Z,252.00
2019-03-04T06:48:52.855Z,260.00
2019-03-04T06:49:52.828Z,264.00
2019-03-04T06:50:52.839Z,252.00
2019-03-04T06:51:52.816Z,248.00
2019-03-04T06:52:52.809Z,252.00
2019-03-04T06:53:52.810Z,256.00
2019-03-04T06:54:52.776Z,268.00
2019-03-04T06:55:52.758Z,292.00
2019-03-04T06:56:54.453Z,312.00
2019-03-04T06:57:52.758Z,344.00
2019-03-04T06:58:52.746Z,356.00
2019-03-04T06:59:52.731Z,368.00
2019-03-04T07:00:52.719Z,380.00
2019-03-04T07:01:52.708Z,392.00
2019-03-04T07:02:52.684Z,412.00
2019-03-04T07:03:52.700Z,424.00
2019-03-04T07:04:52.682Z,444.00
2019-03-04T07:05:52.672Z,464.00
2019-03-04T07:06:52.639Z,472.00
2019-03-04T07:07:52.627Z,468.00
2019-03-04T07:08:52.628Z,464.00
2019-03-04T07:09:52.632Z,468.00
2019-03-04T07:10:52.602Z,456.00
2019-03-04T07:11:52.605Z,464.00
2019-03-04T07:12:52.576Z,484.00
2019-03-04T07:13:52.565Z,508.00
2019-03-04T07:14:52.594Z,532.00
2019-03-04T07:15:52.549Z,556.00
2019-03-04T07:16:52.533Z,588.00
2019-03-04T07:17:52.538Z,608.00
2019-03-04T07:18:52.544Z,624.00
2019-03-04T07:19:52.511Z,644.00
2019-03-04T07:20:52.479Z,668.00
2019-03-04T07:21:52.487Z,688.00
2019-03-04T07:22:52.463Z,684.00
2019-03-04T07:23:52.466Z,664.00
2019-03-04T07:24:52.467Z,644.00
2019-03-04T07:25:52.433Z,632.00
2019-03-04T07:26:52.432Z,604.00
2019-03-04T07:27:52.404Z,584.00
2019-03-04T07:28:52.405Z,600.00
2019-03-04T07:29:52.399Z,604.00
2019-03-04T07:30:54.329Z,604.00
2019-03-04T07:31:52.359Z,612.00
2019-03-04T07:32:52.356Z,620.00
2019-03-04T07:33:52.354Z,632.00
2019-03-04T07:34:52.355Z,640.00
2019-03-04T07:35:52.315Z,656.00
2019-03-04T07:36:52.319Z,668.00
2019-03-04T07:37:52.307Z,684.00
2019-03-04T07:38:52.284Z,692.00
2019-03-04T07:39:52.298Z,684.00
2019-03-04T07:40:52.275Z,652.00
2019-03-04T07:41:52.251Z,612.00
2019-03-04T07:42:52.262Z,564.00
2019-03-04T07:43:52.233Z,516.00
2019-03-04T07:44:52.271Z,468.00
2019-03-04T07:45:52.213Z,440.00
2019-03-04T07:46:52.202Z,424.00
2019-03-04T07:47:52.188Z,416.00
2019-03-04T07:48:52.180Z,412.00
2019-03-04T07:49:52.174Z,416.00
2019-03-04T07:50:52.165Z,420.00
2019-03-04T07:51:52.144Z,424.00
2019-03-04T07:52:52.136Z,432.00
2019-03-04T07:53:52.115Z,436.00
2019-03-04T07:54:52.114Z,436.00
2019-03-04T07:55:52.130Z,436.00
2019-03-04T07:56:52.078Z,432.00
2019-03-04T07:57:52.090Z,436.00
2019-03-04T07:58:52.060Z,444.00
2019-03-04T07:59:52.054Z,444.00
2019-03-04T08:00:52.079Z,444.00
2019-03-04T08:01:52.038Z,436.00
2019-03-04T08:02:52.033Z,432.00
2019-03-04T08:03:52.020Z,420.00
2019-03-04T08:04:52.004Z,420.00
2019-03-04T08:05:51.993Z,428.00
2019-03-04T08:06:52.006Z,444.00
2019-03-04T08:07:51.983Z,464.00
2019-03-04T08:08:51.956Z,488.00
2019-03-04T08:09:51.952Z,492.00
2019-03-04T08:10:51.949Z,484.00
2019-03-04T08:11:51.943Z,468.00
2019-03-04T08:12:51.914Z,428.00
2019-03-04T08:13:51.904Z,396.00
2019-03-04T08:14:51.888Z,368.00
2019-03-04T08:15:51.881Z,408.00
2019-03-04T08:16:51.886Z,440.00
2019-03-04T08:17:51.855Z,440.00
2019-03-04T08:18:51.852Z,428.00
2019-03-04T08:19:51.832Z,460.00
2019-03-04T08:20:51.822Z,512.00
2019-03-04T08:21:51.839Z,600.00
2019-03-04T08:22:51.797Z,704.00
2019-03-04T08:23:51.781Z,752.00
2019-03-04T08:24:51.774Z,780.00
2019-03-04T08:25:51.772Z,748.00
2019-03-04T08:26:51.824Z,756.00
2019-03-04T08:27:52.478Z,700.00
2019-03-04T08:28:51.725Z,636.00
2019-03-04T08:29:51.724Z,572.00
2019-03-04T08:30:51.716Z,560.00
2019-03-04T08:31:51.716Z,564.00
2019-03-04T08:32:51.708Z,652.00
2019-03-04T08:33:51.700Z,896.00
2019-03-04T08:34:51.711Z,1164.00
2019-03-04T08:35:51.653Z,1400.00
2019-03-04T08:36:51.648Z,1608.00
2019-03-04T08:37:51.652Z,1708.00
2019-03-04T08:38:52.492Z,1656.00
2019-03-04T08:39:51.608Z,1528.00
2019-03-04T08:40:51.626Z,1448.00
2019-03-04T08:41:51.606Z,1424.00
2019-03-04T08:42:51.589Z,1416.00
2019-03-04T08:43:51.570Z,1384.00
2019-03-04T08:44:51.556Z,1348.00
2019-03-04T08:45:51.561Z,1316.00
2019-03-04T08:46:51.528Z,1288.00
2019-03-04T08:47:51.532Z,1284.00
2019-03-04T08:48:51.517Z,1344.00
2019-03-04T08:49:51.513Z,1336.00
2019-03-04T08:50:51.501Z,1264.00
2019-03-04T08:51:51.499Z,1228.00
2019-03-04T08:52:51.483Z,1220.00
2019-03-04T08:53:51.464Z,1208.00
2019-03-04T08:54:51.445Z,1180.00
2019-03-04T08:55:51.433Z,1008.00
2019-03-04T08:56:51.424Z,844.00
2019-03-04T08:57:51.419Z,860.00
2019-03-04T08:58:51.410Z,1008.00
2019-03-04T08:59:51.433Z,1196.00
2019-03-04T09:00:51.384Z,1248.00
2019-03-04T09:01:51.369Z,1224.00
2019-03-04T09:02:51.396Z,1192.00
2019-03-04T09:03:51.343Z,1196.00
2019-03-04T09:04:51.339Z,1160.00
2019-03-04T09:05:51.324Z,1100.00
2019-03-04T09:06:51.300Z,1012.00
2019-03-04T09:07:51.343Z,980.00
2019-03-04T09:08:51.293Z,988.00
2019-03-04T09:09:51.277Z,960.00
2019-03-04T09:10:51.267Z,912.00
2019-03-04T09:11:51.257Z,888.00
2019-03-04T09:12:51.263Z,928.00
2019-03-04T09:13:51.237Z,936.00
2019-03-04T09:14:51.215Z,940.00
2019-03-04T09:15:51.227Z,900.00
2019-03-04T09:16:51.196Z,844.00
2019-03-04T09:17:51.204Z,816.00
2019-03-04T09:18:51.178Z,820.00
2019-03-04T09:19:51.167Z,840.00
2019-03-04T09:20:51.157Z,868.00
2019-03-04T09:21:51.148Z,852.00
2019-03-04T09:22:51.165Z,760.00
2019-03-04T09:23:51.139Z,664.00
2019-03-04T09:24:51.102Z,728.00
2019-03-04T09:25:51.088Z,728.00
2019-03-04T09:26:51.090Z,760.00
2019-03-04T09:27:51.080Z,788.00
2019-03-04T09:28:51.109Z,844.00
2019-03-04T09:29:51.079Z,932.00
2019-03-04T09:30:51.042Z,1000.00
2019-03-04T09:31:51.029Z,1092.00
2019-03-04T09:32:51.016Z,1128.00
2019-03-04T09:33:51.016Z,1176.00
2019-03-04T09:34:51.000Z,1248.00
2019-03-04T09:35:50.989Z,1280.00
2019-03-04T09:36:50.991Z,1180.00
2019-03-04T09:37:50.958Z,1032.00
2019-03-04T09:38:50.966Z,948.00
2019-03-04T09:39:50.938Z,876.00
2019-03-04T09:40:50.939Z,844.00
2019-03-04T09:41:52.492Z,780.00
2019-03-04T09:42:50.925Z,708.00
2019-03-04T09:43:50.917Z,712.00
2019-03-04T09:44:50.892Z,744.00
2019-03-04T09:45:50.880Z,756.00
2019-03-04T09:46:50.855Z,748.00
2019-03-04T09:47:50.859Z,780.00
2019-03-04T09:48:50.914Z,800.00
2019-03-04T09:49:50.837Z,736.00
2019-03-04T09:50:50.821Z,660.00
2019-03-04T09:51:50.818Z,608.00
2019-03-04T09:52:50.800Z,600.00
2019-03-04T09:53:50.797Z,596.00
2019-03-04T09:54:50.784Z,584.00
2019-03-04T09:55:50.766Z,580.00
2019-03-04T09:56:50.762Z,596.00
2019-03-04T09:57:50.744Z,620.00
2019-03-04T09:58:50.776Z,640.00
2019-03-04T09:59:50.723Z,632.00
2019-03-04T10:00:50.738Z,648.00
2019-03-04T10:01:50.695Z,668.00
2019-03-04T10:02:50.699Z,648.00
2019-03-04T10:03:50.688Z,720.00
2019-03-04T10:04:50.683Z,824.00
2019-03-04T10:05:50.657Z,892.00
2019-03-04T10:06:50.653Z,948.00
2019-03-04T10:07:50.637Z,960.00
2019-03-04T10:08:50.615Z,940.00
2019-03-04T10:09:50.633Z,884.00
2019-03-04T10:10:50.598Z,880.00
2019-03-04T10:11:50.599Z,888.00
2019-03-04T10:12:50.565Z,908.00
2019-03-04T10:13:50.578Z,972.00
2019-03-04T10:14:50.592Z,1108.00
2019-03-04T10:15:50.556Z,1164.00
2019-03-04T10:16:50.540Z,1152.00
2019-03-04T10:17:50.532Z,1136.00
2019-03-04T10:18:50.517Z,1144.00
2019-03-04T10:19:50.515Z,1080.00
2019-03-04T10:20:50.522Z,1080.00
2019-03-04T10:21:50.463Z,1116.00
2019-03-04T10:22:50.473Z,1184.00
2019-03-04T10:23:50.476Z,1284.00
2019-03-04T10:24:50.521Z,1332.00
2019-03-04T10:25:50.450Z,1304.00
2019-03-04T10:26:50.433Z,1296.00
2019-03-04T10:27:50.415Z,1464.00
2019-03-04T10:28:50.404Z,1640.00
2019-03-04T10:29:50.379Z,1632.00
2019-03-04T10:30:50.456Z,1604.00
2019-03-04T10:31:50.367Z,1428.00
2019-03-04T10:32:50.368Z,1164.00
2019-03-04T10:33:50.343Z,1228.00
2019-03-04T10:34:50.354Z,1272.00
2019-03-04T10:35:50.363Z,1404.00
2019-03-04T10:36:50.318Z,1340.00
2019-03-04T10:37:50.298Z,1288.00
2019-03-04T10:38:50.349Z,1360.00
2019-03-04T10:39:50.295Z,1832.00
2019-03-04T10:40:50.322Z,2060.00
2019-03-04T10:41:50.301Z,1784.00
2019-03-04T10:42:50.250Z,1420.00
2019-03-04T10:43:50.230Z,1104.00
2019-03-04T10:44:50.218Z,1076.00
2019-03-04T10:45:50.222Z,1524.00
2019-03-04T10:46:50.237Z,1304.00
2019-03-04T10:47:50.192Z,928.00
2019-03-04T10:48:50.189Z,940.00
2019-03-04T10:49:50.175Z,652.00
2019-03-04T10:50:50.154Z,504.00
2019-03-04T10:51:50.159Z,680.00
2019-03-04T10:52:50.167Z,648.00
2019-03-04T10:53:50.125Z,672.00
2019-03-04T10:54:50.130Z,504.00
2019-03-04T10:55:50.099Z,508.00
2019-03-04T10:56:50.089Z,460.00
2019-03-04T10:57:50.093Z,404.00
2019-03-04T10:58:50.087Z,384.00
2019-03-04T10:59:50.048Z,748.00
2019-03-04T11:00:50.037Z,712.00
2019-03-04T11:01:50.257Z,584.00
2019-03-04T11:02:50.049Z,500.00
2019-03-04T11:03:50.021Z,620.00
2019-03-04T11:04:49.997Z,540.00
2019-03-04T11:05:49.990Z,376.00
2019-03-04T11:06:49.974Z,364.00
2019-03-04T11:07:49.984Z,380.00
2019-03-04T11:08:49.956Z,340.00
2019-03-04T11:09:49.937Z,348.00
2019-03-04T11:10:49.933Z,368.00
2019-03-04T11:11:49.928Z,396.00
2019-03-04T11:12:49.913Z,456.00
2019-03-04T11:13:49.926Z,704.00
2019-03-04T11:14:49.926Z,1272.00
2019-03-04T11:15:49.916Z,1480.00
2019-03-04T11:16:49.864Z,892.00
2019-03-04T11:17:50.518Z,580.00
2019-03-04T11:18:49.888Z,572.00
2019-03-04T11:19:50.442Z,772.00
2019-03-04T11:20:49.871Z,588.00
2019-03-04T11:21:49.812Z,468.00
2019-03-04T11:22:49.887Z,308.00
2019-03-04T11:23:49.809Z,184.00
2019-03-04T11:24:49.812Z,152.00
2019-03-04T11:25:49.781Z,136.00
2019-03-04T11:26:49.760Z,200.00
2019-03-04T11:27:49.741Z,212.00
2019-03-04T11:28:49.799Z,244.00
2019-03-04T11:29:49.726Z,364.00
2019-03-04T11:30:49.722Z,468.00
2019-03-04T11:31:49.698Z,536.00
2019-03-04T11:32:49.697Z,572.00
2019-03-04T11:33:49.739Z,508.00
2019-03-04T11:34:49.672Z,496.00
2019-03-04T11:35:49.657Z,536.00
2019-03-04T11:36:49.656Z,544.00
2019-03-04T11:37:49.626Z,516.00
2019-03-04T11:38:49.621Z,500.00
2019-03-04T11:39:49.636Z,532.00
2019-03-04T11:40:49.768Z,544.00
2019-03-04T11:41:49.579Z,488.00
2019-03-04T11:42:50.581Z,440.00
2019-03-04T11:43:49.564Z,484.00
2019-03-04T11:44:49.603Z,572.00
2019-03-04T11:45:49.557Z,620.00
2019-03-04T11:46:49.531Z,644.00
2019-03-04T11:47:49.526Z,900.00
2019-03-04T11:48:49.519Z,724.00
2019-03-04T11:49:49.513Z,508.00
2019-03-04T11:50:49.505Z,616.00
2019-03-04T11:51:49.472Z,644.00
2019-03-04T11:52:49.466Z,576.00
2019-03-04T11:53:49.489Z,412.00
2019-03-04T11:54:49.445Z,260.00
2019-03-04T11:55:49.445Z,252.00
2019-03-04T11:56:49.439Z,312.00
2019-03-04T11:57:49.412Z,232.00
2019-03-04T11:58:49.389Z,392.00
2019-03-04T11:59:49.381Z,484.00
2019-03-04T12:00:49.380Z,564.00
2019-03-04T12:01:49.387Z,532.00
2019-03-04T12:02:49.351Z,544.00
2019-03-04T12:03:49.355Z,552.00
2019-03-04T12:04:49.332Z,544.00
2019-03-04T12:05:49.338Z,616.00
2019-03-04T12:06:49.312Z,780.00
2019-03-04T12:07:49.306Z,964.00
2019-03-04T12:08:49.284Z,868.00
2019-03-04T12:09:49.293Z,736.00
2019-03-04T12:10:49.292Z,732.00
2019-03-04T12:11:49.255Z,732.00
2019-03-04T12:12:49.243Z,856.00
2019-03-04T12:13:49.241Z,1008.00
2019-03-04T12:14:49.224Z,976.00
2019-03-04T12:15:49.240Z,844.00
2019-03-04T12:16:49.202Z,896.00
2019-03-04T12:17:49.208Z,920.00
2019-03-04T12:18:49.168Z,844.00
2019-03-04T12:19:49.180Z,1292.00
2019-03-04T12:20:49.185Z,1652.00
2019-03-04T12:21:49.141Z,1748.00
2019-03-04T12:22:49.144Z,1828.00
2019-03-04T12:23:49.131Z,1744.00
2019-03-04T12:24:49.111Z,1680.00
2019-03-04T12:25:49.128Z,1484.00
2019-03-04T12:26:49.089Z,1380.00
2019-03-04T12:27:49.091Z,1696.00
2019-03-04T12:28:49.066Z,1716.00
2019-03-04T12:29:49.053Z,1560.00
2019-03-04T12:30:49.044Z,1196.00
2019-03-04T12:31:49.067Z,964.00
2019-03-04T12:32:49.016Z,904.00
2019-03-04T12:33:49.010Z,884.00
2019-03-04T12:34:49.022Z,904.00
2019-03-04T12:35:49.014Z,1072.00
2019-03-04T12:36:49.072Z,1448.00
2019-03-04T12:37:48.958Z,1564.00
2019-03-04T12:38:48.949Z,1548.00
2019-03-04T12:39:48.942Z,1404.00
2019-03-04T12:40:48.963Z,1472.00
2019-03-04T12:41:49.737Z,1472.00
2019-03-04T12:42:48.906Z,1512.00
2019-03-04T12:43:48.889Z,1460.00
2019-03-04T12:44:48.902Z,1492.00
2019-03-04T12:45:48.870Z,1560.00
2019-03-04T12:46:48.885Z,1644.00
2019-03-04T12:47:48.861Z,1796.00
2019-03-04T12:48:48.858Z,1812.00